sensor_id;sensor_type;location;lat;lon;timestamp;P1;durP1;ratioP1;P2;durP2;ratioP2
22040;SDS011;11184;52.444;13.578;2024-03-25T00:01:47;5.07;;;4.53;;
22040;SDS011;11184;52.444;13.578;2024-03-25T00:04:31;6.13;;;5.63;;
22040;SDS011;11184;52.444;13.578;2024-03-25T00:07:15;5.05;;;4.65;;
22040;SDS011;11184;52.444;13.578;2024-03-25T00:10:00;6.22;;;4.90;;
22040;SDS011;11184;52.444;13.578;2024-03-25T00:12:45;5.78;;;5.28;;
22040;SDS011;11184;52.444;13.578;2024-03-25T00:15:29;6.60;;;6.00;;
22040;SDS011;11184;52.444;13.578;2024-03-25T00:18:14;6.03;;;5.47;;
22040;SDS011;11184;52.444;13.578;2024-03-25T00:20:59;4.78;;;4.38;;
22040;SDS011;11184;52.444;13.578;2024-03-25T00:23:43;5.63;;;5.00;;
22040;SDS011;11184;52.444;13.578;2024-03-25T00:26:28;5.40;;;4.90;;
22040;SDS011;11184;52.444;13.578;2024-03-25T00:29:12;4.82;;;4.45;;
22040;SDS011;11184;52.444;13.578;2024-03-25T00:31:57;4.95;;;4.55;;
22040;SDS011;11184;52.444;13.578;2024-03-25T00:34:42;5.95;;;5.45;;
22040;SDS011;11184;52.444;13.578;2024-03-25T00:37:26;5.30;;;4.78;;
22040;SDS011;11184;52.444;13.578;2024-03-25T00:40:11;5.68;;;5.13;;
22040;SDS011;11184;52.444;13.578;2024-03-25T00:42:56;5.82;;;5.32;;
22040;SDS011;11184;52.444;13.578;2024-03-25T00:45:41;5.88;;;5.38;;
22040;SDS011;11184;52.444;13.578;2024-03-25T00:48:25;7.00;;;6.40;;
22040;SDS011;11184;52.444;13.578;2024-03-25T00:51:10;8.38;;;6.07;;
22040;SDS011;11184;52.444;13.578;2024-03-25T00:53:55;6.40;;;5.85;;
22040;SDS011;11184;52.444;13.578;2024-03-25T00:56:39;8.80;;;6.47;;
22040;SDS011;11184;52.444;13.578;2024-03-25T00:59:24;7.25;;;6.47;;
22040;SDS011;11184;52.444;13.578;2024-03-25T01:02:09;8.88;;;6.47;;
22040;SDS011;11184;52.444;13.578;2024-03-25T01:04:54;7.15;;;6.45;;
22040;SDS011;11184;52.444;13.578;2024-03-25T01:07:40;7.95;;;7.30;;
22040;SDS011;11184;52.444;13.578;2024-03-25T01:10:25;8.05;;;7.35;;
22040;SDS011;11184;52.444;13.578;2024-03-25T01:13:09;9.07;;;8.13;;
22040;SDS011;11184;52.444;13.578;2024-03-25T01:15:54;9.43;;;8.60;;
22040;SDS011;11184;52.444;13.578;2024-03-25T01:18:39;8.35;;;7.55;;
22040;SDS011;11184;52.444;13.578;2024-03-25T01:21:23;9.15;;;8.27;;
22040;SDS011;11184;52.444;13.578;2024-03-25T01:24:08;8.88;;;7.97;;
22040;SDS011;11184;52.444;13.578;2024-03-25T01:26:52;8.32;;;7.63;;
22040;SDS011;11184;52.444;13.578;2024-03-25T01:29:37;9.07;;;8.20;;
22040;SDS011;11184;52.444;13.578;2024-03-25T01:32:21;7.25;;;6.65;;
22040;SDS011;11184;52.444;13.578;2024-03-25T01:35:06;7.25;;;6.57;;
22040;SDS011;11184;52.444;13.578;2024-03-25T01:37:51;15.25;;;7.07;;
22040;SDS011;11184;52.444;13.578;2024-03-25T01:40:36;7.20;;;6.60;;
22040;SDS011;11184;52.444;13.578;2024-03-25T01:43:21;7.90;;;7.10;;
22040;SDS011;11184;52.444;13.578;2024-03-25T01:46:05;9.45;;;6.88;;
22040;SDS011;11184;52.444;13.578;2024-03-25T01:48:50;7.60;;;6.82;;
22040;SDS011;11184;52.444;13.578;2024-03-25T01:51:36;9.45;;;7.80;;
22040;SDS011;11184;52.444;13.578;2024-03-25T01:54:21;8.35;;;7.55;;
22040;SDS011;11184;52.444;13.578;2024-03-25T01:57:06;7.13;;;6.43;;
22040;SDS011;11184;52.444;13.578;2024-03-25T01:59:51;7.47;;;6.25;;
22040;SDS011;11184;52.444;13.578;2024-03-25T02:02:37;8.77;;;6.97;;
22040;SDS011;11184;52.444;13.578;2024-03-25T02:05:25;19.00;;;6.80;;
22040;SDS011;11184;52.444;13.578;2024-03-25T02:08:09;9.15;;;5.95;;
22040;SDS011;11184;52.444;13.578;2024-03-25T02:10:55;3.72;;;3.22;;
22040;SDS011;11184;52.444;13.578;2024-03-25T02:13:40;6.55;;;2.55;;
22040;SDS011;11184;52.444;13.578;2024-03-25T02:16:25;1.83;;;1.45;;
22040;SDS011;11184;52.444;13.578;2024-03-25T02:19:10;5.65;;;2.08;;
22040;SDS011;11184;52.444;13.578;2024-03-25T02:21:56;2.45;;;2.25;;
22040;SDS011;11184;52.444;13.578;2024-03-25T02:24:40;3.00;;;1.92;;
22040;SDS011;11184;52.444;13.578;2024-03-25T02:27:26;4.68;;;1.42;;
22040;SDS011;11184;52.444;13.578;2024-03-25T02:30:15;2.45;;;1.92;;
22040;SDS011;11184;52.444;13.578;2024-03-25T02:33:00;2.50;;;1.20;;
22040;SDS011;11184;52.444;13.578;2024-03-25T02:35:44;1.70;;;1.60;;
22040;SDS011;11184;52.444;13.578;2024-03-25T02:38:29;1.25;;;1.15;;
22040;SDS011;11184;52.444;13.578;2024-03-25T02:41:14;1.48;;;1.30;;
22040;SDS011;11184;52.444;13.578;2024-03-25T02:43:58;1.45;;;1.00;;
22040;SDS011;11184;52.444;13.578;2024-03-25T02:46:43;3.20;;;1.20;;
22040;SDS011;11184;52.444;13.578;2024-03-25T02:49:28;1.65;;;1.55;;
22040;SDS011;11184;52.444;13.578;2024-03-25T02:52:13;4.22;;;3.00;;
22040;SDS011;11184;52.444;13.578;2024-03-25T02:54:57;1.92;;;1.58;;
22040;SDS011;11184;52.444;13.578;2024-03-25T02:57:42;2.80;;;2.17;;
22040;SDS011;11184;52.444;13.578;2024-03-25T03:00:26;3.78;;;2.38;;
22040;SDS011;11184;52.444;13.578;2024-03-25T03:03:11;7.20;;;2.88;;
22040;SDS011;11184;52.444;13.578;2024-03-25T03:05:55;3.78;;;3.20;;
22040;SDS011;11184;52.444;13.578;2024-03-25T03:08:40;9.73;;;3.83;;
22040;SDS011;11184;52.444;13.578;2024-03-25T03:11:25;7.78;;;3.78;;
22040;SDS011;11184;52.444;13.578;2024-03-25T03:14:09;6.20;;;4.45;;
22040;SDS011;11184;52.444;13.578;2024-03-25T03:16:54;11.23;;;4.90;;
22040;SDS011;11184;52.444;13.578;2024-03-25T03:19:41;5.13;;;3.95;;
22040;SDS011;11184;52.444;13.578;2024-03-25T03:22:26;7.63;;;4.53;;
22040;SDS011;11184;52.444;13.578;2024-03-25T03:25:10;6.20;;;4.63;;
22040;SDS011;11184;52.444;13.578;2024-03-25T03:27:55;5.68;;;4.72;;
22040;SDS011;11184;52.444;13.578;2024-03-25T03:30:39;8.13;;;5.95;;
22040;SDS011;11184;52.444;13.578;2024-03-25T03:33:24;8.43;;;6.20;;
22040;SDS011;11184;52.444;13.578;2024-03-25T03:36:10;10.85;;;6.55;;
22040;SDS011;11184;52.444;13.578;2024-03-25T03:38:54;8.38;;;5.97;;
22040;SDS011;11184;52.444;13.578;2024-03-25T03:41:39;9.15;;;6.70;;
22040;SDS011;11184;52.444;13.578;2024-03-25T03:44:23;11.43;;;6.05;;
22040;SDS011;11184;52.444;13.578;2024-03-25T03:47:08;12.75;;;7.40;;
22040;SDS011;11184;52.444;13.578;2024-03-25T03:49:52;10.00;;;4.85;;
22040;SDS011;11184;52.444;13.578;2024-03-25T03:52:37;8.57;;;4.82;;
22040;SDS011;11184;52.444;13.578;2024-03-25T03:55:21;9.13;;;5.47;;
22040;SDS011;11184;52.444;13.578;2024-03-25T03:58:06;9.45;;;5.05;;
22040;SDS011;11184;52.444;13.578;2024-03-25T04:00:51;8.02;;;5.57;;
22040;SDS011;11184;52.444;13.578;2024-03-25T04:03:36;5.57;;;4.78;;
22040;SDS011;11184;52.444;13.578;2024-03-25T04:06:22;6.65;;;5.13;;
22040;SDS011;11184;52.444;13.578;2024-03-25T04:09:07;7.35;;;5.47;;
22040;SDS011;11184;52.444;13.578;2024-03-25T04:11:53;10.23;;;6.45;;
22040;SDS011;11184;52.444;13.578;2024-03-25T04:14:37;6.65;;;5.63;;
22040;SDS011;11184;52.444;13.578;2024-03-25T04:17:22;12.63;;;5.95;;
22040;SDS011;11184;52.444;13.578;2024-03-25T04:20:06;8.93;;;5.95;;
22040;SDS011;11184;52.444;13.578;2024-03-25T04:22:54;7.70;;;6.47;;
22040;SDS011;11184;52.444;13.578;2024-03-25T04:25:39;8.77;;;5.82;;
22040;SDS011;11184;52.444;13.578;2024-03-25T04:28:23;7.07;;;4.55;;
22040;SDS011;11184;52.444;13.578;2024-03-25T04:31:09;6.38;;;4.90;;
22040;SDS011;11184;52.444;13.578;2024-03-25T04:33:53;5.20;;;4.70;;
22040;SDS011;11184;52.444;13.578;2024-03-25T04:36:38;6.57;;;3.67;;
22040;SDS011;11184;52.444;13.578;2024-03-25T04:39:23;6.00;;;5.00;;
22040;SDS011;11184;52.444;13.578;2024-03-25T04:42:07;6.00;;;3.90;;
22040;SDS011;11184;52.444;13.578;2024-03-25T04:44:52;9.00;;;3.80;;
22040;SDS011;11184;52.444;13.578;2024-03-25T04:47:38;7.85;;;3.92;;
22040;SDS011;11184;52.444;13.578;2024-03-25T04:50:23;5.47;;;4.07;;
22040;SDS011;11184;52.444;13.578;2024-03-25T04:53:07;6.38;;;5.07;;
22040;SDS011;11184;52.444;13.578;2024-03-25T04:55:52;6.03;;;4.40;;
22040;SDS011;11184;52.444;13.578;2024-03-25T04:58:38;7.88;;;4.65;;
22040;SDS011;11184;52.444;13.578;2024-03-25T05:01:23;7.32;;;4.28;;
22040;SDS011;11184;52.444;13.578;2024-03-25T05:04:08;7.10;;;4.75;;
22040;SDS011;11184;52.444;13.578;2024-03-25T05:06:53;7.75;;;5.03;;
22040;SDS011;11184;52.444;13.578;2024-03-25T05:09:37;10.80;;;6.85;;
22040;SDS011;11184;52.444;13.578;2024-03-25T05:12:22;10.63;;;5.70;;
22040;SDS011;11184;52.444;13.578;2024-03-25T05:15:07;7.50;;;5.97;;
22040;SDS011;11184;52.444;13.578;2024-03-25T05:17:51;12.18;;;8.63;;
22040;SDS011;11184;52.444;13.578;2024-03-25T05:20:36;10.95;;;7.10;;
22040;SDS011;11184;52.444;13.578;2024-03-25T05:23:20;10.35;;;6.43;;
22040;SDS011;11184;52.444;13.578;2024-03-25T05:26:06;7.80;;;6.57;;
22040;SDS011;11184;52.444;13.578;2024-03-25T05:28:54;17.20;;;7.50;;
22040;SDS011;11184;52.444;13.578;2024-03-25T05:31:39;9.90;;;6.43;;
22040;SDS011;11184;52.444;13.578;2024-03-25T05:34:24;10.27;;;6.97;;
22040;SDS011;11184;52.444;13.578;2024-03-25T05:37:09;12.18;;;5.78;;
22040;SDS011;11184;52.444;13.578;2024-03-25T05:39:54;10.18;;;7.15;;
22040;SDS011;11184;52.444;13.578;2024-03-25T05:42:38;8.98;;;6.22;;
22040;SDS011;11184;52.444;13.578;2024-03-25T05:45:23;14.75;;;6.78;;
22040;SDS011;11184;52.444;13.578;2024-03-25T05:48:07;9.82;;;5.90;;
22040;SDS011;11184;52.444;13.578;2024-03-25T06:09:33;11.55;;;5.95;;
22040;SDS011;11184;52.444;13.578;2024-03-25T06:12:18;15.88;;;6.50;;
22040;SDS011;11184;52.444;13.578;2024-03-25T06:15:03;11.02;;;6.38;;
22040;SDS011;11184;52.444;13.578;2024-03-25T06:17:48;10.73;;;6.65;;
22040;SDS011;11184;52.444;13.578;2024-03-25T06:20:33;10.52;;;6.75;;
22040;SDS011;11184;52.444;13.578;2024-03-25T06:23:27;10.13;;;5.55;;
22040;SDS011;11184;52.444;13.578;2024-03-25T06:26:12;14.25;;;9.95;;
22040;SDS011;11184;52.444;13.578;2024-03-25T06:28:57;14.73;;;8.65;;
22040;SDS011;11184;52.444;13.578;2024-03-25T06:31:41;10.35;;;7.78;;
22040;SDS011;11184;52.444;13.578;2024-03-25T06:34:45;11.35;;;7.03;;
22040;SDS011;11184;52.444;13.578;2024-03-25T06:37:29;19.23;;;8.82;;
22040;SDS011;11184;52.444;13.578;2024-03-25T06:40:14;10.80;;;7.20;;
22040;SDS011;11184;52.444;13.578;2024-03-25T06:42:59;13.32;;;8.25;;
22040;SDS011;11184;52.444;13.578;2024-03-25T06:45:43;16.58;;;7.72;;
22040;SDS011;11184;52.444;13.578;2024-03-25T06:48:28;10.25;;;7.63;;
22040;SDS011;11184;52.444;13.578;2024-03-25T06:51:13;14.10;;;7.47;;
22040;SDS011;11184;52.444;13.578;2024-03-25T06:53:59;13.02;;;6.63;;
22040;SDS011;11184;52.444;13.578;2024-03-25T06:56:43;15.07;;;7.03;;
22040;SDS011;11184;52.444;13.578;2024-03-25T06:59:28;12.50;;;7.75;;
22040;SDS011;11184;52.444;13.578;2024-03-25T07:02:19;17.05;;;6.80;;
22040;SDS011;11184;52.444;13.578;2024-03-25T07:05:04;12.35;;;7.00;;
22040;SDS011;11184;52.444;13.578;2024-03-25T07:07:49;15.68;;;5.78;;
22040;SDS011;11184;52.444;13.578;2024-03-25T07:10:34;11.93;;;6.07;;
22040;SDS011;11184;52.444;13.578;2024-03-25T07:13:19;12.15;;;6.57;;
22040;SDS011;11184;52.444;13.578;2024-03-25T07:16:03;9.77;;;6.55;;
22040;SDS011;11184;52.444;13.578;2024-03-25T07:18:48;17.73;;;6.95;;
22040;SDS011;11184;52.444;13.578;2024-03-25T07:21:33;9.50;;;6.72;;
22040;SDS011;11184;52.444;13.578;2024-03-25T07:24:17;13.23;;;7.03;;
22040;SDS011;11184;52.444;13.578;2024-03-25T07:27:02;7.45;;;6.47;;
22040;SDS011;11184;52.444;13.578;2024-03-25T07:29:47;8.68;;;6.82;;
22040;SDS011;11184;52.444;13.578;2024-03-25T07:32:32;11.23;;;5.75;;
22040;SDS011;11184;52.444;13.578;2024-03-25T07:35:16;10.02;;;6.43;;
22040;SDS011;11184;52.444;13.578;2024-03-25T07:38:01;14.88;;;7.82;;
22040;SDS011;11184;52.444;13.578;2024-03-25T07:40:47;16.23;;;6.55;;
22040;SDS011;11184;52.444;13.578;2024-03-25T07:43:32;13.30;;;6.38;;
22040;SDS011;11184;52.444;13.578;2024-03-25T07:46:16;15.77;;;7.57;;
22040;SDS011;11184;52.444;13.578;2024-03-25T07:49:01;12.20;;;6.63;;
22040;SDS011;11184;52.444;13.578;2024-03-25T07:51:45;10.77;;;6.10;;
22040;SDS011;11184;52.444;13.578;2024-03-25T07:54:30;12.52;;;7.47;;
22040;SDS011;11184;52.444;13.578;2024-03-25T07:57:15;12.25;;;6.57;;
22040;SDS011;11184;52.444;13.578;2024-03-25T08:00:00;10.27;;;5.78;;
22040;SDS011;11184;52.444;13.578;2024-03-25T08:02:44;12.90;;;6.07;;
22040;SDS011;11184;52.444;13.578;2024-03-25T08:05:29;9.32;;;5.10;;
22040;SDS011;11184;52.444;13.578;2024-03-25T08:08:14;14.38;;;5.30;;
22040;SDS011;11184;52.444;13.578;2024-03-25T08:10:59;7.95;;;5.50;;
22040;SDS011;11184;52.444;13.578;2024-03-25T08:13:44;14.38;;;6.15;;
22040;SDS011;11184;52.444;13.578;2024-03-25T08:16:28;5.95;;;5.28;;
22040;SDS011;11184;52.444;13.578;2024-03-25T08:19:13;8.18;;;5.57;;
22040;SDS011;11184;52.444;13.578;2024-03-25T08:31:20;6.75;;;6.15;;
22040;SDS011;11184;52.444;13.578;2024-03-25T08:46:56;10.73;;;8.75;;
22040;SDS011;11184;52.444;13.578;2024-03-25T08:49:41;17.08;;;10.02;;
22040;SDS011;11184;52.444;13.578;2024-03-25T08:52:25;16.45;;;9.32;;
22040;SDS011;11184;52.444;13.578;2024-03-25T08:55:10;12.45;;;9.82;;
22040;SDS011;11184;52.444;13.578;2024-03-25T08:57:56;16.30;;;10.82;;
22040;SDS011;11184;52.444;13.578;2024-03-25T09:00:44;14.18;;;9.95;;
22040;SDS011;11184;52.444;13.578;2024-03-25T09:08:40;12.65;;;11.35;;
22040;SDS011;11184;52.444;13.578;2024-03-25T09:11:44;12.82;;;9.32;;
22040;SDS011;11184;52.444;13.578;2024-03-25T09:22:03;7.30;;;6.60;;
22040;SDS011;11184;52.444;13.578;2024-03-25T09:24:48;9.20;;;6.63;;
22040;SDS011;11184;52.444;13.578;2024-03-25T09:27:33;7.43;;;6.68;;
22040;SDS011;11184;52.444;13.578;2024-03-25T09:30:18;6.45;;;5.35;;
22040;SDS011;11184;52.444;13.578;2024-03-25T09:33:02;8.63;;;6.55;;
22040;SDS011;11184;52.444;13.578;2024-03-25T09:35:47;8.43;;;5.68;;
22040;SDS011;11184;52.444;13.578;2024-03-25T09:38:32;8.50;;;5.90;;
22040;SDS011;11184;52.444;13.578;2024-03-25T09:41:16;6.63;;;5.95;;
22040;SDS011;11184;52.444;13.578;2024-03-25T10:22:11;4.30;;;3.75;;
22040;SDS011;11184;52.444;13.578;2024-03-25T10:24:56;9.48;;;3.75;;
22040;SDS011;11184;52.444;13.578;2024-03-25T10:27:42;4.47;;;3.70;;
22040;SDS011;11184;52.444;13.578;2024-03-25T10:30:36;6.68;;;3.40;;
22040;SDS011;11184;52.444;13.578;2024-03-25T10:33:21;7.68;;;4.50;;
22040;SDS011;11184;52.444;13.578;2024-03-25T10:36:05;7.43;;;4.57;;
22040;SDS011;11184;52.444;13.578;2024-03-25T10:38:53;6.07;;;3.78;;
22040;SDS011;11184;52.444;13.578;2024-03-25T10:41:38;6.18;;;4.32;;
22040;SDS011;11184;52.444;13.578;2024-03-25T10:44:24;12.70;;;4.90;;
22040;SDS011;11184;52.444;13.578;2024-03-25T10:47:08;7.20;;;3.97;;
22040;SDS011;11184;52.444;13.578;2024-03-25T10:49:59;5.65;;;3.72;;
22040;SDS011;11184;52.444;13.578;2024-03-25T10:52:45;6.95;;;3.83;;
22040;SDS011;11184;52.444;13.578;2024-03-25T10:55:30;5.32;;;3.28;;
22040;SDS011;11184;52.444;13.578;2024-03-25T10:58:16;4.05;;;2.85;;
22040;SDS011;11184;52.444;13.578;2024-03-25T11:01:03;3.08;;;2.78;;
22040;SDS011;11184;52.444;13.578;2024-03-25T11:03:48;4.68;;;3.03;;
22040;SDS011;11184;52.444;13.578;2024-03-25T11:06:34;3.28;;;2.15;;
22040;SDS011;11184;52.444;13.578;2024-03-25T11:09:25;4.88;;;2.72;;
22040;SDS011;11184;52.444;13.578;2024-03-25T11:12:10;2.38;;;2.05;;
22040;SDS011;11184;52.444;13.578;2024-03-25T11:14:56;3.00;;;1.80;;
22040;SDS011;11184;52.444;13.578;2024-03-25T11:17:48;3.63;;;1.95;;
22040;SDS011;11184;52.444;13.578;2024-03-25T11:20:32;5.78;;;2.47;;
22040;SDS011;11184;52.444;13.578;2024-03-25T11:23:17;3.80;;;1.35;;
22040;SDS011;11184;52.444;13.578;2024-03-25T11:26:02;8.48;;;2.03;;
22040;SDS011;11184;52.444;13.578;2024-03-25T11:28:46;3.03;;;1.40;;
22040;SDS011;11184;52.444;13.578;2024-03-25T11:31:32;2.05;;;1.60;;
22040;SDS011;11184;52.444;13.578;2024-03-25T11:34:17;4.20;;;1.30;;
22040;SDS011;11184;52.444;13.578;2024-03-25T11:37:01;1.75;;;1.00;;
22040;SDS011;11184;52.444;13.578;2024-03-25T11:39:46;4.18;;;1.23;;
22040;SDS011;11184;52.444;13.578;2024-03-25T11:42:30;4.13;;;1.90;;
22040;SDS011;11184;52.444;13.578;2024-03-25T11:45:16;2.70;;;2.00;;
22040;SDS011;11184;52.444;13.578;2024-03-25T11:48:01;2.75;;;2.08;;
22040;SDS011;11184;52.444;13.578;2024-03-25T11:50:46;1.75;;;1.20;;
22040;SDS011;11184;52.444;13.578;2024-03-25T11:53:32;2.20;;;1.20;;
22040;SDS011;11184;52.444;13.578;2024-03-25T11:56:16;4.65;;;1.15;;
22040;SDS011;11184;52.444;13.578;2024-03-25T11:59:01;1.40;;;1.30;;
22040;SDS011;11184;52.444;13.578;2024-03-25T12:01:46;4.72;;;1.25;;
22040;SDS011;11184;52.444;13.578;2024-03-25T12:22:27;3.60;;;1.30;;
22040;SDS011;11184;52.444;13.578;2024-03-25T12:25:12;3.53;;;0.90;;
22040;SDS011;11184;52.444;13.578;2024-03-25T12:27:57;2.25;;;1.00;;
22040;SDS011;11184;52.444;13.578;2024-03-25T12:30:51;3.53;;;1.30;;
22040;SDS011;11184;52.444;13.578;2024-03-25T12:33:40;2.88;;;1.83;;
22040;SDS011;11184;52.444;13.578;2024-03-25T12:36:25;2.03;;;1.13;;
22040;SDS011;11184;52.444;13.578;2024-03-25T12:39:16;1.10;;;0.80;;
22040;SDS011;11184;52.444;13.578;2024-03-25T12:42:04;1.75;;;0.90;;
22040;SDS011;11184;52.444;13.578;2024-03-25T12:44:48;1.42;;;1.33;;
22040;SDS011;11184;52.444;13.578;2024-03-25T12:47:33;1.00;;;0.80;;
22040;SDS011;11184;52.444;13.578;2024-03-25T12:50:18;2.17;;;1.10;;
22040;SDS011;11184;52.444;13.578;2024-03-25T12:53:04;0.80;;;0.60;;
22040;SDS011;11184;52.444;13.578;2024-03-25T12:55:49;0.93;;;0.75;;
22040;SDS011;11184;52.444;13.578;2024-03-25T12:58:34;3.20;;;1.10;;
22040;SDS011;11184;52.444;13.578;2024-03-25T13:01:18;3.00;;;1.00;;
22040;SDS011;11184;52.444;13.578;2024-03-25T13:04:03;3.05;;;1.40;;
22040;SDS011;11184;52.444;13.578;2024-03-25T13:06:48;2.55;;;1.10;;
22040;SDS011;11184;52.444;13.578;2024-03-25T13:09:32;1.20;;;0.95;;
22040;SDS011;11184;52.444;13.578;2024-03-25T13:12:17;1.80;;;1.10;;
22040;SDS011;11184;52.444;13.578;2024-03-25T13:15:01;7.90;;;1.02;;
22040;SDS011;11184;52.444;13.578;2024-03-25T13:17:46;1.98;;;1.17;;
22040;SDS011;11184;52.444;13.578;2024-03-25T13:20:31;2.50;;;0.82;;
22040;SDS011;11184;52.444;13.578;2024-03-25T13:23:22;3.95;;;0.90;;
22040;SDS011;11184;52.444;13.578;2024-03-25T13:26:07;1.17;;;0.70;;
22040;SDS011;11184;52.444;13.578;2024-03-25T13:28:52;1.83;;;1.50;;
22040;SDS011;11184;52.444;13.578;2024-03-25T13:31:37;1.80;;;1.25;;
22040;SDS011;11184;52.444;13.578;2024-03-25T13:37:39;1.30;;;0.80;;
22040;SDS011;11184;52.444;13.578;2024-03-25T13:40:24;3.63;;;1.33;;
22040;SDS011;11184;52.444;13.578;2024-03-25T13:43:08;1.85;;;1.42;;
22040;SDS011;11184;52.444;13.578;2024-03-25T13:45:53;1.05;;;0.95;;
22040;SDS011;11184;52.444;13.578;2024-03-25T13:48:38;4.50;;;1.77;;
22040;SDS011;11184;52.444;13.578;2024-03-25T13:51:22;3.10;;;1.38;;
22040;SDS011;11184;52.444;13.578;2024-03-25T13:54:07;1.02;;;0.65;;
22040;SDS011;11184;52.444;13.578;2024-03-25T13:56:51;2.08;;;0.80;;
22040;SDS011;11184;52.444;13.578;2024-03-25T13:59:36;2.75;;;0.90;;
22040;SDS011;11184;52.444;13.578;2024-03-25T14:02:21;1.50;;;0.93;;
22040;SDS011;11184;52.444;13.578;2024-03-25T14:05:06;0.70;;;0.60;;
22040;SDS011;11184;52.444;13.578;2024-03-25T14:07:50;0.95;;;0.70;;
22040;SDS011;11184;52.444;13.578;2024-03-25T14:14:03;1.45;;;0.90;;
22040;SDS011;11184;52.444;13.578;2024-03-25T14:16:47;0.73;;;0.60;;
22040;SDS011;11184;52.444;13.578;2024-03-25T14:19:32;2.40;;;1.10;;
22040;SDS011;11184;52.444;13.578;2024-03-25T14:22:17;3.53;;;1.20;;
22040;SDS011;11184;52.444;13.578;2024-03-25T14:25:01;1.00;;;0.68;;
22040;SDS011;11184;52.444;13.578;2024-03-25T14:27:46;2.25;;;0.90;;
22040;SDS011;11184;52.444;13.578;2024-03-25T14:30:30;1.30;;;0.75;;
22040;SDS011;11184;52.444;13.578;2024-03-25T14:33:15;1.95;;;0.90;;
22040;SDS011;11184;52.444;13.578;2024-03-25T14:36:00;5.32;;;0.90;;
22040;SDS011;11184;52.444;13.578;2024-03-25T14:38:44;3.13;;;1.15;;
22040;SDS011;11184;52.444;13.578;2024-03-25T14:41:29;2.05;;;1.10;;
22040;SDS011;11184;52.444;13.578;2024-03-25T14:44:22;1.65;;;0.82;;
22040;SDS011;11184;52.444;13.578;2024-03-25T14:47:07;2.70;;;0.90;;
22040;SDS011;11184;52.444;13.578;2024-03-25T14:49:51;0.85;;;0.80;;
22040;SDS011;11184;52.444;13.578;2024-03-25T14:52:36;2.47;;;1.20;;
22040;SDS011;11184;52.444;13.578;2024-03-25T14:55:21;1.40;;;1.05;;
22040;SDS011;11184;52.444;13.578;2024-03-25T14:58:06;2.65;;;1.30;;
22040;SDS011;11184;52.444;13.578;2024-03-25T15:00:50;2.03;;;1.35;;
22040;SDS011;11184;52.444;13.578;2024-03-25T15:03:35;2.45;;;1.02;;
22040;SDS011;11184;52.444;13.578;2024-03-25T15:06:20;2.63;;;1.30;;
22040;SDS011;11184;52.444;13.578;2024-03-25T15:09:04;3.40;;;1.30;;
22040;SDS011;11184;52.444;13.578;2024-03-25T15:11:49;6.07;;;1.73;;
22040;SDS011;11184;52.444;13.578;2024-03-25T15:14:33;3.28;;;1.75;;
22040;SDS011;11184;52.444;13.578;2024-03-25T15:17:18;1.73;;;1.60;;
22040;SDS011;11184;52.444;13.578;2024-03-25T15:20:03;8.05;;;1.63;;
22040;SDS011;11184;52.444;13.578;2024-03-25T15:22:48;2.50;;;1.98;;
22040;SDS011;11184;52.444;13.578;2024-03-25T15:25:33;8.50;;;1.90;;
22040;SDS011;11184;52.444;13.578;2024-03-25T15:28:18;3.17;;;2.03;;
22040;SDS011;11184;52.444;13.578;2024-03-25T15:31:03;4.40;;;1.20;;
22040;SDS011;11184;52.444;13.578;2024-03-25T15:33:47;2.22;;;1.05;;
22040;SDS011;11184;52.444;13.578;2024-03-25T15:36:32;3.25;;;1.73;;
22040;SDS011;11184;52.444;13.578;2024-03-25T15:39:17;1.13;;;0.77;;
22040;SDS011;11184;52.444;13.578;2024-03-25T15:42:02;5.05;;;1.75;;
22040;SDS011;11184;52.444;13.578;2024-03-25T15:44:49;2.17;;;0.93;;
22040;SDS011;11184;52.444;13.578;2024-03-25T15:47:33;3.22;;;1.05;;
22040;SDS011;11184;52.444;13.578;2024-03-25T15:50:18;1.33;;;0.98;;
22040;SDS011;11184;52.444;13.578;2024-03-25T15:53:03;2.47;;;1.05;;
22040;SDS011;11184;52.444;13.578;2024-03-25T15:55:47;1.45;;;0.98;;
22040;SDS011;11184;52.444;13.578;2024-03-25T15:58:34;1.83;;;0.95;;
22040;SDS011;11184;52.444;13.578;2024-03-25T16:01:19;2.15;;;1.25;;
22040;SDS011;11184;52.444;13.578;2024-03-25T16:04:04;3.30;;;1.45;;
22040;SDS011;11184;52.444;13.578;2024-03-25T16:06:48;2.78;;;1.02;;
22040;SDS011;11184;52.444;13.578;2024-03-25T16:09:33;4.60;;;1.00;;
22040;SDS011;11184;52.444;13.578;2024-03-25T16:12:17;3.30;;;1.00;;
22040;SDS011;11184;52.444;13.578;2024-03-25T16:15:02;1.40;;;0.95;;
22040;SDS011;11184;52.444;13.578;2024-03-25T16:17:48;2.72;;;1.67;;
22040;SDS011;11184;52.444;13.578;2024-03-25T16:20:33;1.20;;;0.82;;
22040;SDS011;11184;52.444;13.578;2024-03-25T16:23:18;2.60;;;1.00;;
22040;SDS011;11184;52.444;13.578;2024-03-25T16:26:02;2.42;;;0.80;;
22040;SDS011;11184;52.444;13.578;2024-03-25T16:28:47;5.13;;;2.97;;
22040;SDS011;11184;52.444;13.578;2024-03-25T16:31:31;1.60;;;0.80;;
22040;SDS011;11184;52.444;13.578;2024-03-25T16:34:17;5.60;;;1.83;;
22040;SDS011;11184;52.444;13.578;2024-03-25T16:37:01;1.00;;;0.90;;
22040;SDS011;11184;52.444;13.578;2024-03-25T16:39:46;1.63;;;0.80;;
22040;SDS011;11184;52.444;13.578;2024-03-25T16:42:30;2.15;;;1.10;;
22040;SDS011;11184;52.444;13.578;2024-03-25T16:45:15;1.33;;;0.88;;
22040;SDS011;11184;52.444;13.578;2024-03-25T16:48:00;2.78;;;1.20;;
22040;SDS011;11184;52.444;13.578;2024-03-25T16:50:45;3.22;;;1.05;;
22040;SDS011;11184;52.444;13.578;2024-03-25T16:53:30;2.30;;;1.23;;
22040;SDS011;11184;52.444;13.578;2024-03-25T16:56:16;1.92;;;1.00;;
22040;SDS011;11184;52.444;13.578;2024-03-25T16:59:01;5.13;;;1.42;;
22040;SDS011;11184;52.444;13.578;2024-03-25T17:01:46;3.42;;;1.70;;
22040;SDS011;11184;52.444;13.578;2024-03-25T17:04:30;2.97;;;1.00;;
22040;SDS011;11184;52.444;13.578;2024-03-25T17:07:15;4.82;;;1.63;;
22040;SDS011;11184;52.444;13.578;2024-03-25T17:09:59;5.47;;;1.23;;
22040;SDS011;11184;52.444;13.578;2024-03-25T17:12:44;14.13;;;1.75;;
22040;SDS011;11184;52.444;13.578;2024-03-25T17:15:29;2.85;;;1.67;;
22040;SDS011;11184;52.444;13.578;2024-03-25T17:18:14;4.57;;;1.65;;
22040;SDS011;11184;52.444;13.578;2024-03-25T17:20:59;4.00;;;1.65;;
22040;SDS011;11184;52.444;13.578;2024-03-25T17:23:45;7.18;;;1.42;;
22040;SDS011;11184;52.444;13.578;2024-03-25T17:26:30;2.45;;;1.40;;
22040;SDS011;11184;52.444;13.578;2024-03-25T17:29:15;5.63;;;1.80;;
22040;SDS011;11184;52.444;13.578;2024-03-25T17:32:00;4.93;;;1.88;;
22040;SDS011;11184;52.444;13.578;2024-03-25T17:34:45;3.08;;;1.85;;
22040;SDS011;11184;52.444;13.578;2024-03-25T17:37:29;2.03;;;1.85;;
22040;SDS011;11184;52.444;13.578;2024-03-25T17:40:14;4.25;;;2.45;;
22040;SDS011;11184;52.444;13.578;2024-03-25T17:42:59;4.35;;;2.63;;
22040;SDS011;11184;52.444;13.578;2024-03-25T17:45:44;12.93;;;3.38;;
22040;SDS011;11184;52.444;13.578;2024-03-25T17:48:28;4.22;;;2.88;;
22040;SDS011;11184;52.444;13.578;2024-03-25T17:51:14;3.70;;;2.10;;
22040;SDS011;11184;52.444;13.578;2024-03-25T17:53:59;2.50;;;2.13;;
22040;SDS011;11184;52.444;13.578;2024-03-25T17:56:44;4.20;;;2.72;;
22040;SDS011;11184;52.444;13.578;2024-03-25T17:59:28;3.53;;;2.42;;
22040;SDS011;11184;52.444;13.578;2024-03-25T18:02:13;4.60;;;2.55;;
22040;SDS011;11184;52.444;13.578;2024-03-25T18:04:59;7.18;;;2.65;;
22040;SDS011;11184;52.444;13.578;2024-03-25T18:07:44;9.70;;;3.05;;
22040;SDS011;11184;52.444;13.578;2024-03-25T18:10:30;7.57;;;3.80;;
22040;SDS011;11184;52.444;13.578;2024-03-25T18:13:15;4.75;;;3.20;;